createdAt,value
2016-06-02T00:00:25.485Z,18.9
2016-06-02T00:01:25.379Z,18.92
2016-06-02T00:02:25.569Z,18.9
2016-06-02T00:03:25.604Z,18.93
2016-06-02T00:04:25.637Z,18.92
2016-06-02T00:05:25.671Z,19.02
2016-06-02T00:06:25.548Z,18.98
2016-06-02T00:07:25.754Z,18.92
2016-06-02T00:08:25.788Z,18.93
2016-06-02T00:09:25.838Z,18.81
2016-06-02T00:10:26.716Z,18.88
2016-06-02T00:11:25.906Z,18.92
2016-06-02T00:12:25.939Z,18.84
2016-06-02T00:13:25.974Z,18.84
2016-06-02T00:14:25.867Z,18.8
2016-06-02T00:15:26.073Z,18.86
2016-06-02T00:16:25.934Z,18.89
2016-06-02T00:17:26.141Z,18.9
2016-06-02T00:18:26.190Z,18.81
2016-06-02T00:19:26.209Z,18.92
2016-06-02T00:20:26.242Z,18.92
2016-06-02T00:21:26.292Z,18.92
2016-06-02T00:22:26.326Z,18.83
2016-06-02T00:23:26.360Z,18.9
2016-06-02T00:24:26.613Z,18.83
2016-06-02T00:25:26.366Z,18.83
2016-06-02T00:26:26.477Z,18.84
2016-06-02T00:27:26.543Z,18.95
2016-06-02T00:28:26.546Z,18.86
2016-06-02T00:29:26.579Z,18.81
2016-06-02T00:30:26.630Z,18.84
2016-06-02T00:31:26.663Z,18.81
2016-06-02T00:32:26.540Z,18.8
2016-06-02T00:33:26.746Z,18.83
2016-06-02T00:34:26.780Z,18.9
2016-06-02T00:35:26.830Z,18.9
2016-06-02T00:36:26.863Z,18.81
2016-06-02T00:37:26.898Z,18.88
2016-06-02T00:38:26.776Z,18.8
2016-06-02T00:39:26.966Z,18.86
2016-06-02T00:40:26.999Z,18.84
2016-06-02T00:41:27.065Z,18.86
2016-06-02T00:42:27.114Z,18.8
2016-06-02T00:43:27.117Z,18.92
2016-06-02T00:44:27.151Z,18.84
2016-06-02T00:45:27.185Z,18.74
2016-06-02T00:46:27.234Z,18.86
2016-06-02T00:47:27.268Z,18.84
2016-06-02T00:48:27.303Z,18.83
2016-06-02T00:49:27.336Z,18.78
2016-06-02T00:50:27.370Z,18.86
2016-06-02T00:51:27.420Z,18.83
2016-06-02T00:52:27.454Z,18.83
2016-06-02T00:53:27.503Z,18.71
2016-06-02T00:54:27.225Z,18.71
2016-06-02T00:55:27.509Z,18.7
2016-06-02T00:56:27.589Z,18.84
2016-06-02T00:57:27.639Z,18.74
2016-06-02T00:58:27.672Z,18.81
2016-06-02T00:59:27.707Z,18.71
2016-06-02T01:00:27.741Z,18.68
2016-06-02T01:01:27.635Z,18.8
2016-06-02T01:02:27.840Z,18.73
2016-06-02T01:03:27.874Z,18.73
2016-06-02T01:04:27.893Z,18.83
2016-06-02T01:05:27.941Z,18.81
2016-06-02T01:06:27.976Z,18.8
2016-06-02T01:07:28.010Z,18.8
2016-06-02T01:08:27.903Z,18.71
2016-06-02T01:09:28.499Z,18.73
2016-06-02T01:10:28.393Z,18.74
2016-06-02T01:11:28.161Z,18.74
2016-06-02T01:12:28.210Z,18.86
2016-06-02T01:13:28.245Z,18.89
2016-06-02T01:14:28.279Z,18.8
2016-06-02T01:15:28.313Z,18.86
2016-06-02T01:16:28.346Z,18.8
2016-06-02T01:17:28.396Z,18.86
2016-06-02T01:18:28.431Z,18.86
2016-06-02T01:19:28.308Z,18.83
2016-06-02T01:20:28.498Z,18.71
2016-06-02T01:21:28.548Z,18.83
2016-06-02T01:22:28.566Z,18.8
2016-06-02T01:23:28.615Z,18.8
2016-06-02T01:24:29.040Z,18.73
2016-06-02T01:25:29.153Z,18.7
2016-06-02T01:26:28.717Z,18.73
2016-06-02T01:27:28.767Z,18.74
2016-06-02T01:28:28.645Z,18.7
2016-06-02T01:29:28.835Z,18.66
2016-06-02T01:30:28.869Z,18.65
2016-06-02T01:31:28.903Z,18.63
2016-06-02T01:32:28.952Z,18.65
2016-06-02T01:33:28.986Z,18.58
2016-06-02T01:34:28.880Z,18.59
2016-06-02T01:35:28.913Z,18.49
2016-06-02T01:36:29.104Z,18.56
2016-06-02T01:37:29.138Z,18.5
2016-06-02T01:38:28.859Z,18.49
2016-06-02T01:39:30.080Z,18.35
2016-06-02T01:40:29.318Z,18.38
2016-06-02T01:41:29.289Z,18.38
2016-06-02T01:42:29.323Z,18.4
2016-06-02T01:43:29.373Z,18.31
2016-06-02T01:44:29.422Z,18.28
2016-06-02T01:45:29.440Z,18.25
2016-06-02T01:46:29.318Z,18.2
2016-06-02T01:47:29.508Z,18.22
2016-06-02T01:48:29.557Z,18.11
2016-06-02T01:49:29.592Z,18.08
2016-06-02T01:50:29.625Z,18.15
2016-06-02T01:51:29.659Z,18.11
2016-06-02T01:52:29.693Z,18.07
2016-06-02T01:53:29.743Z,18.07
2016-06-02T01:54:29.761Z,18.03
2016-06-02T01:55:29.764Z,17.98
2016-06-02T01:56:29.860Z,18.05
2016-06-02T01:57:29.895Z,17.92
2016-06-02T01:58:29.755Z,17.95
2016-06-02T01:59:29.962Z,17.94
2016-06-02T02:00:29.839Z,17.92
2016-06-02T02:01:30.046Z,17.94
2016-06-02T02:02:30.079Z,17.86
2016-06-02T02:03:30.113Z,17.79
2016-06-02T02:04:29.991Z,17.76
2016-06-02T02:05:30.197Z,17.72
2016-06-02T02:06:30.215Z,17.71
2016-06-02T02:07:30.265Z,17.67
2016-06-02T02:08:30.298Z,17.65
2016-06-02T02:09:30.177Z,17.7
2016-06-02T02:10:30.071Z,17.67
2016-06-02T02:11:30.401Z,17.49
2016-06-02T02:12:30.294Z,17.52
2016-06-02T02:13:30.485Z,17.49
2016-06-02T02:14:30.518Z,17.39
2016-06-02T02:15:30.551Z,17.42
2016-06-02T02:16:30.586Z,17.41
2016-06-02T02:17:30.635Z,17.41
2016-06-02T02:18:30.513Z,17.39
2016-06-02T02:19:30.703Z,17.41
2016-06-02T02:20:30.737Z,17.42
2016-06-02T02:21:30.770Z,17.38
2016-06-02T02:22:30.806Z,17.34
2016-06-02T02:23:30.839Z,17.34
2016-06-02T02:24:30.733Z,17.27
2016-06-02T02:25:31.000Z,17.26
2016-06-02T02:26:30.957Z,17.26
2016-06-02T02:27:31.005Z,17.27
2016-06-02T02:28:31.039Z,17.16
2016-06-02T02:29:30.762Z,17.3
2016-06-02T02:30:31.108Z,17.31
2016-06-02T02:31:31.141Z,17.27
2016-06-02T02:32:31.035Z,17.2
2016-06-02T02:33:31.053Z,17.2
2016-06-02T02:34:31.103Z,17.16
2016-06-02T02:35:31.293Z,17.16
2016-06-02T02:36:31.030Z,17.16
2016-06-02T02:37:31.361Z,17.19
2016-06-02T02:38:31.396Z,17.14
2016-06-02T02:39:31.491Z,17.23
2016-06-02T02:40:31.337Z,17.16
2016-06-02T02:41:31.529Z,17.08
2016-06-02T02:42:31.562Z,17.11
2016-06-02T02:43:31.580Z,17.04
2016-06-02T02:44:31.614Z,17.11
2016-06-02T02:45:31.664Z,17.12
2016-06-02T02:46:31.698Z,16.99
2016-06-02T02:47:31.575Z,17.04
2016-06-02T02:48:31.766Z,16.94
2016-06-02T02:49:31.643Z,16.9
2016-06-02T02:50:31.833Z,16.91
2016-06-02T02:51:31.868Z,16.91
2016-06-02T02:52:31.917Z,16.9
2016-06-02T02:53:31.951Z,16.81
2016-06-02T02:54:31.844Z,16.86
2016-06-02T02:55:32.050Z,16.83
2016-06-02T02:56:32.069Z,16.79
2016-06-02T02:57:31.947Z,16.72
2016-06-02T02:58:32.136Z,16.76
2016-06-02T02:59:32.186Z,16.79
2016-06-02T03:00:32.220Z,16.75
2016-06-02T03:01:32.238Z,16.71
2016-06-02T03:02:32.272Z,16.72
2016-06-02T03:03:32.322Z,16.72
2016-06-02T03:04:32.356Z,16.76
2016-06-02T03:05:32.405Z,16.66
2016-06-02T03:06:32.266Z,16.56
2016-06-02T03:07:32.473Z,16.68
2016-06-02T03:08:32.491Z,16.66
2016-06-02T03:09:33.057Z,16.66
2016-06-02T03:10:32.763Z,16.68
2016-06-02T03:11:32.609Z,16.64
2016-06-02T03:12:32.643Z,16.64
2016-06-02T03:13:32.677Z,16.58
2016-06-02T03:14:32.571Z,16.6
2016-06-02T03:15:32.760Z,16.64
2016-06-02T03:16:32.638Z,16.65
2016-06-02T03:17:32.828Z,16.58
2016-06-02T03:18:32.862Z,16.65
2016-06-02T03:19:32.739Z,16.57
2016-06-02T03:20:32.945Z,16.6
2016-06-02T03:21:32.964Z,16.57
2016-06-02T03:22:32.857Z,16.51
2016-06-02T03:23:33.047Z,16.6
2016-06-02T03:24:33.081Z,16.53
2016-06-02T03:25:33.725Z,16.58
2016-06-02T03:26:33.149Z,16.6
2016-06-02T03:27:33.183Z,16.57
2016-06-02T03:28:33.233Z,16.53
2016-06-02T03:29:33.291Z,16.57
2016-06-02T03:30:33.350Z,16.56
2016-06-02T03:31:33.409Z,16.54
2016-06-02T03:32:33.172Z,16.57
2016-06-02T03:33:33.419Z,16.51
2016-06-02T03:34:33.587Z,16.58
2016-06-02T03:35:33.615Z,16.58
2016-06-02T03:36:33.674Z,16.51
2016-06-02T03:37:33.576Z,16.58
2016-06-02T03:38:33.760Z,16.57
2016-06-02T03:39:33.814Z,16.56
2016-06-02T03:40:33.850Z,16.49
2016-06-02T03:41:33.872Z,16.58
2016-06-02T03:42:33.924Z,16.5
2016-06-02T03:43:33.961Z,16.56
2016-06-02T03:44:33.996Z,16.56
2016-06-02T03:45:33.875Z,16.58
2016-06-02T03:46:33.910Z,16.58
2016-06-02T03:47:34.101Z,16.5
2016-06-02T03:48:33.996Z,16.57
2016-06-02T03:49:34.187Z,16.56
2016-06-02T03:50:34.221Z,16.5
2016-06-02T03:51:34.255Z,16.65
2016-06-02T03:52:34.305Z,16.53
2016-06-02T03:53:34.183Z,16.6
2016-06-02T03:54:34.436Z,16.6
2016-06-02T03:55:34.408Z,16.57
2016-06-02T03:56:34.442Z,16.5
2016-06-02T03:57:34.477Z,16.6
2016-06-02T03:58:34.512Z,16.54
2016-06-02T03:59:34.545Z,16.57
2016-06-02T04:00:34.282Z,16.57
2016-06-02T04:01:34.472Z,16.56
2016-06-02T04:02:34.663Z,16.64
2016-06-02T04:03:34.697Z,16.61
2016-06-02T04:04:34.746Z,16.64
2016-06-02T04:05:34.764Z,16.6
2016-06-02T04:06:34.814Z,16.49
2016-06-02T04:07:34.833Z,16.53
2016-06-02T04:08:34.726Z,16.58
2016-06-02T04:09:34.775Z,16.65
2016-06-02T04:10:35.434Z,16.66
2016-06-02T04:11:34.843Z,16.64
2016-06-02T04:12:35.033Z,16.71
2016-06-02T04:13:35.066Z,16.68
2016-06-02T04:14:34.944Z,16.61
2016-06-02T04:15:34.979Z,16.68
2016-06-02T04:16:35.028Z,16.6
2016-06-02T04:17:35.202Z,16.64
2016-06-02T04:18:35.252Z,16.61
2016-06-02T04:19:35.286Z,16.65
2016-06-02T04:20:35.320Z,16.65
2016-06-02T04:21:35.354Z,16.71
2016-06-02T04:22:35.404Z,16.74
2016-06-02T04:23:35.438Z,16.79
2016-06-02T04:24:35.346Z,16.69
2016-06-02T04:25:36.302Z,16.72
2016-06-02T04:26:35.227Z,16.72
2016-06-02T04:27:35.589Z,16.78
2016-06-02T04:28:35.623Z,16.93
2016-06-02T04:29:35.673Z,17.06
2016-06-02T04:30:35.707Z,17.38
2016-06-02T04:31:35.726Z,17.92
2016-06-02T04:32:35.759Z,18.15
2016-06-02T04:33:35.808Z,18.22
2016-06-02T04:34:35.842Z,18.56
2016-06-02T04:35:35.861Z,18.8
2016-06-02T04:36:35.910Z,18.98
2016-06-02T04:37:35.803Z,18.92
2016-06-02T04:38:35.978Z,18.95
2016-06-02T04:39:36.387Z,19.3
2016-06-02T04:40:37.530Z,19.77
2016-06-02T04:41:36.095Z,19.89
2016-06-02T04:42:35.973Z,19.89
2016-06-02T04:43:36.008Z,19.82
2016-06-02T04:44:36.213Z,20.09
2016-06-02T04:45:36.247Z,19.99
2016-06-02T04:46:36.280Z,20.24
2016-06-02T04:47:36.316Z,20.59
2016-06-02T04:48:36.364Z,20.55
2016-06-02T04:49:36.399Z,20.92
2016-06-02T04:50:36.276Z,21.43
2016-06-02T04:51:36.482Z,21.58
2016-06-02T04:52:36.531Z,21.5
2016-06-02T04:53:36.549Z,21.27
2016-06-02T04:54:36.849Z,21.54
2016-06-02T04:55:36.493Z,20.99
2016-06-02T04:56:36.682Z,20.5
2016-06-02T04:57:36.701Z,20.55
2016-06-02T04:58:36.751Z,20.72
2016-06-02T04:59:36.784Z,21.35
2016-06-02T05:00:36.818Z,21.58
2016-06-02T05:01:36.868Z,21.8
2016-06-02T05:02:36.902Z,21.75
2016-06-02T05:03:36.937Z,21.79
2016-06-02T05:04:36.829Z,22.13
2016-06-02T05:05:37.020Z,22.54
2016-06-02T05:06:36.912Z,22.55
2016-06-02T05:07:37.134Z,23.05
2016-06-02T05:08:37.152Z,23.71
2016-06-02T05:09:37.467Z,23.71
2016-06-02T05:10:37.736Z,23.86
2016-06-02T05:11:37.270Z,23.84
2016-06-02T05:12:37.335Z,23.73
2016-06-02T05:13:37.041Z,23.56
2016-06-02T05:14:37.247Z,23.59
2016-06-02T05:15:37.422Z,23.76
2016-06-02T05:16:37.314Z,22.63
2016-06-02T05:17:37.536Z,21.85
2016-06-02T05:18:37.398Z,21.48
2016-06-02T05:19:37.605Z,21.39
2016-06-02T05:20:37.638Z,21.79
2016-06-02T05:21:37.687Z,22.2
2016-06-02T05:22:37.722Z,22.18
2016-06-02T05:23:37.755Z,21.55
2016-06-02T05:24:55.120Z,21.55
2016-06-02T05:25:37.713Z,21.66
2016-06-02T05:26:37.888Z,22.35
2016-06-02T05:27:37.923Z,22.69
2016-06-02T05:28:37.972Z,22.18
2016-06-02T05:29:37.849Z,21.89
2016-06-02T05:30:37.915Z,21.67
2016-06-02T05:31:37.949Z,22.28
2016-06-02T05:32:38.139Z,23
2016-06-02T05:33:38.173Z,23.27
2016-06-02T05:34:38.223Z,23.31
2016-06-02T05:35:38.273Z,23.39
2016-06-02T05:36:38.306Z,23.77
2016-06-02T05:37:38.356Z,23.51
2016-06-02T05:38:38.390Z,23.73
2016-06-02T05:39:38.564Z,23.66
2016-06-02T05:40:39.426Z,24.16
2016-06-02T05:41:38.507Z,24.53
2016-06-02T05:42:38.572Z,24.57
2016-06-02T05:43:38.606Z,23.96
2016-06-02T05:44:38.655Z,23.39
2016-06-02T05:45:38.689Z,22.54
2016-06-02T05:46:38.723Z,22.59
2016-06-02T05:47:38.773Z,22.53
2016-06-02T05:48:38.822Z,22.5
2016-06-02T05:49:38.857Z,22.59
2016-06-02T05:50:38.906Z,22.02
2016-06-02T05:51:38.940Z,22.02
2016-06-02T05:52:38.990Z,22.59
2016-06-02T05:53:38.867Z,23.17
2016-06-02T05:54:39.261Z,22.63
2016-06-02T05:55:39.560Z,22.35
2016-06-02T05:56:39.001Z,22.02
2016-06-02T05:57:38.893Z,22.1
2016-06-02T05:58:39.256Z,21.7
2016-06-02T05:59:39.290Z,21.5
2016-06-02T06:00:39.324Z,21.33
2016-06-02T06:01:39.373Z,20.82
2016-06-02T06:02:39.423Z,20.52
2016-06-02T06:03:39.457Z,20.06
2016-06-02T06:04:39.506Z,19.82
2016-06-02T06:05:39.540Z,19.81
2016-06-02T06:06:39.417Z,19.58
2016-06-02T06:07:39.624Z,19.79
2016-06-02T06:08:39.501Z,19.74
2016-06-02T06:09:39.739Z,19.77
2016-06-02T06:10:39.773Z,19.58
2016-06-02T06:11:39.634Z,19.58
2016-06-02T06:12:39.840Z,19.63
2016-06-02T06:13:39.875Z,19.41
2016-06-02T06:14:39.924Z,19.4
2016-06-02T06:15:39.973Z,19.47
2016-06-02T06:16:39.992Z,19.48
2016-06-02T06:17:40.041Z,19.52
2016-06-02T06:18:39.919Z,19.67
2016-06-02T06:19:40.109Z,19.84
2016-06-02T06:20:40.159Z,19.88
2016-06-02T06:21:40.194Z,19.94
2016-06-02T06:22:40.257Z,19.94
2016-06-02T06:23:40.277Z,20.09
2016-06-02T06:24:41.264Z,20.1
2016-06-02T06:25:40.235Z,20.06
2016-06-02T06:26:40.410Z,19.84
2016-06-02T06:27:40.444Z,19.94
2016-06-02T06:28:40.337Z,19.94
2016-06-02T06:29:40.511Z,19.89
2016-06-02T06:30:40.561Z,19.64
2016-06-02T06:31:40.438Z,19.55
2016-06-02T06:32:40.348Z,19.56
2016-06-02T06:33:40.694Z,19.31
2016-06-02T06:34:40.712Z,19.39
2016-06-02T06:35:40.777Z,19.39
2016-06-02T06:36:40.796Z,19.45
2016-06-02T06:37:40.846Z,19.48
2016-06-02T06:38:40.723Z,19.59
2016-06-02T06:39:40.773Z,19.82
2016-06-02T06:40:42.197Z,19.86
2016-06-02T06:41:40.997Z,19.84
2016-06-02T06:42:41.031Z,19.88
2016-06-02T06:43:41.080Z,19.84
2016-06-02T06:44:41.114Z,19.71
2016-06-02T06:45:41.147Z,19.67
2016-06-02T06:46:41.198Z,19.79
2016-06-02T06:47:41.247Z,19.88
2016-06-02T06:48:41.281Z,19.84
2016-06-02T06:49:41.330Z,19.89
2016-06-02T06:50:41.192Z,19.99
2016-06-02T06:51:41.399Z,20
2016-06-02T06:52:41.276Z,19.92
2016-06-02T06:53:41.466Z,19.94
2016-06-02T06:54:41.828Z,19.85
2016-06-02T06:55:41.878Z,19.95
2016-06-02T06:56:41.443Z,19.89
2016-06-02T06:57:41.618Z,19.96
2016-06-02T06:58:41.667Z,20.13
2016-06-02T06:59:41.716Z,20.14
2016-06-02T07:00:41.751Z,20.09
2016-06-02T07:01:41.785Z,20.07
2016-06-02T07:02:41.662Z,20.11
2016-06-02T07:03:41.712Z,20.24
2016-06-02T07:04:41.746Z,20.26
2016-06-02T07:05:41.951Z,20.19
2016-06-02T07:06:41.985Z,20.22
2016-06-02T07:07:42.034Z,20.13
2016-06-02T07:08:42.069Z,20.19
2016-06-02T07:09:42.243Z,20.21
2016-06-02T07:10:42.168Z,20.22
2016-06-02T07:11:42.030Z,20.34
2016-06-02T07:12:42.081Z,20.32
2016-06-02T07:13:42.270Z,20.48
2016-06-02T07:14:42.147Z,20.47
2016-06-02T07:15:42.354Z,20.22
2016-06-02T07:16:42.387Z,20.22
2016-06-02T07:17:42.265Z,20.22
2016-06-02T07:18:42.456Z,20.13
2016-06-02T07:19:42.506Z,20.14
2016-06-02T07:20:42.538Z,20.19
2016-06-02T07:21:42.589Z,20.25
2016-06-02T07:22:42.623Z,20.39
2016-06-02T07:23:42.500Z,20.47
2016-06-02T07:24:42.550Z,20.36
2016-06-02T07:25:42.912Z,20.32
2016-06-02T07:26:42.774Z,20.37
2016-06-02T07:27:42.824Z,20.67
2016-06-02T07:28:42.858Z,20.77
2016-06-02T07:29:42.735Z,20.78
2016-06-02T07:30:42.941Z,20.93
2016-06-02T07:31:42.975Z,20.87
2016-06-02T07:32:43.024Z,20.92
2016-06-02T07:33:42.887Z,20.93
2016-06-02T07:34:43.093Z,21.17
2016-06-02T07:35:43.018Z,21.43
2016-06-02T07:36:43.176Z,21.61
2016-06-02T07:37:43.054Z,21.6
2016-06-02T07:38:43.087Z,21.66
2016-06-02T07:39:44.028Z,21.96
2016-06-02T07:40:43.343Z,22.15
2016-06-02T07:41:43.377Z,22.2
2016-06-02T07:42:43.254Z,22.41
2016-06-02T07:43:43.460Z,22.44
2016-06-02T07:44:43.494Z,22.26
2016-06-02T07:45:43.528Z,22.43
2016-06-02T07:46:43.422Z,22.73
2016-06-02T07:47:43.612Z,22.96
2016-06-02T07:48:43.678Z,23.18
2016-06-02T07:49:43.695Z,23.68
2016-06-02T07:50:43.745Z,24.02
2016-06-02T07:51:43.778Z,24.54
2016-06-02T07:52:43.828Z,25.25
2016-06-02T07:53:43.706Z,25.07
2016-06-02T07:54:44.428Z,25.28
2016-06-02T07:55:44.305Z,25.41
2016-06-02T07:56:43.995Z,26.03
2016-06-02T07:57:44.029Z,26.66
2016-06-02T07:58:44.110Z,26.9
2016-06-02T07:59:44.128Z,25.63
2016-06-02T08:00:44.163Z,25.4
2016-06-02T08:01:44.806Z,25.33
2016-06-02T08:02:44.261Z,25.41
2016-06-02T08:03:44.295Z,25.69
2016-06-02T08:04:44.345Z,25.84
2016-06-02T08:05:44.379Z,25.84
2016-06-02T08:06:44.428Z,25.47
2016-06-02T08:07:44.463Z,24.89
2016-06-02T08:08:44.527Z,24.77
2016-06-02T08:09:45.279Z,24.85
2016-06-02T08:10:44.455Z,24.06
2016-06-02T08:11:44.489Z,23.74
2016-06-02T08:12:44.694Z,23.73
2016-06-02T08:13:44.745Z,23.23
2016-06-02T08:14:44.778Z,22.55
2016-06-02T08:15:44.811Z,22.08
2016-06-02T08:16:44.877Z,21.88
2016-06-02T08:17:44.911Z,21.88
2016-06-02T08:18:44.976Z,22.29
2016-06-02T08:19:44.994Z,21.83
2016-06-02T08:20:44.904Z,21.82
2016-06-02T08:21:45.094Z,22.3
2016-06-02T08:22:45.144Z,21.98
2016-06-02T08:23:45.177Z,21.64
2016-06-02T08:24:45.852Z,21.66
2016-06-02T08:25:45.667Z,21.83
2016-06-02T08:26:45.295Z,21.6
2016-06-02T08:27:45.360Z,21.58
2016-06-02T08:28:45.394Z,21.73
2016-06-02T08:29:45.427Z,22.08
2016-06-02T08:30:45.477Z,22.6
2016-06-02T08:31:45.355Z,22.5
2016-06-02T08:32:45.561Z,22.06
2016-06-02T08:33:45.594Z,21.83
2016-06-02T08:34:45.644Z,21.92
2016-06-02T08:35:45.694Z,22.18
2016-06-02T08:36:45.728Z,22.32
2016-06-02T08:37:45.777Z,22.26
2016-06-02T08:38:45.826Z,21.82
2016-06-02T08:39:46.345Z,21.76
2016-06-02T08:40:45.895Z,21.54
2016-06-02T08:41:45.944Z,21.61
2016-06-02T08:42:45.978Z,21.83
2016-06-02T08:43:46.028Z,21.73
2016-06-02T08:44:46.077Z,21.77
2016-06-02T08:45:46.111Z,21.77
2016-06-02T08:46:46.161Z,22.02
2016-06-02T08:47:46.195Z,21.88
2016-06-02T08:48:46.244Z,21.91
2016-06-02T08:49:46.278Z,21.76
2016-06-02T08:50:46.328Z,21.76
2016-06-02T08:51:46.377Z,21.66
2016-06-02T08:52:46.412Z,21.58
2016-06-02T08:53:46.148Z,21.89
2016-06-02T08:54:47.042Z,21.89
2016-06-02T08:55:46.560Z,22.06
2016-06-02T08:56:46.578Z,22.39
2016-06-02T08:57:46.471Z,22.8
2016-06-02T08:58:46.677Z,22.8
2016-06-02T08:59:46.696Z,23.09
2016-06-02T09:00:46.746Z,23.13
2016-06-02T09:01:46.811Z,23.27
2016-06-02T09:02:46.829Z,22.94
2016-06-02T09:03:46.879Z,23.15
2016-06-02T09:04:46.912Z,23.24
2016-06-02T09:05:46.963Z,23.66
2016-06-02T09:06:47.012Z,24.73
2016-06-02T09:07:47.046Z,25.06
2016-06-02T09:08:46.939Z,26.16
2016-06-02T09:09:47.457Z,26.9
2016-06-02T09:10:47.023Z,26.16
2016-06-02T09:11:47.213Z,25.35
2016-06-02T09:12:47.262Z,24.89
2016-06-02T09:13:47.311Z,24.29
2016-06-02T09:14:47.204Z,23.8
2016-06-02T09:15:47.255Z,23.02
2016-06-02T09:16:47.289Z,22.76
2016-06-02T09:17:47.495Z,22.53
2016-06-02T09:18:47.528Z,22.54
2016-06-02T09:19:47.422Z,22.45
2016-06-02T09:20:47.456Z,22.32
2016-06-02T09:21:47.348Z,22.65
2016-06-02T09:22:47.712Z,22.45
2016-06-02T09:23:47.761Z,22.65
2016-06-02T09:24:47.639Z,22.44
2016-06-02T09:25:47.984Z,22.18
2016-06-02T09:26:47.861Z,22.78
2016-06-02T09:27:47.912Z,23.55
2016-06-02T09:28:47.962Z,24.39
2016-06-02T09:29:47.855Z,24.13
2016-06-02T09:30:48.061Z,23.78
2016-06-02T09:31:48.094Z,24.14
2016-06-02T09:32:48.128Z,24.38
2016-06-02T09:33:48.178Z,24.73
2016-06-02T09:34:48.227Z,24.74
2016-06-02T09:35:48.277Z,24.61
2016-06-02T09:36:48.155Z,24.23
2016-06-02T09:37:48.361Z,24.23
2016-06-02T09:38:48.238Z,24.76
2016-06-02T09:39:48.460Z,25.33
2016-06-02T09:40:48.509Z,25.6
2016-06-02T09:41:48.232Z,25.98
2016-06-02T09:42:48.577Z,27.07
2016-06-02T09:43:48.627Z,27.14
2016-06-02T09:44:48.692Z,26.07
2016-06-02T09:45:48.726Z,25.4
2016-06-02T09:46:48.759Z,25.16
2016-06-02T09:47:48.669Z,24.91
2016-06-02T09:48:48.859Z,25.69
2016-06-02T09:49:48.893Z,25.96
2016-06-02T09:50:48.943Z,26.22
2016-06-02T09:51:48.992Z,26.56
2016-06-02T09:52:49.026Z,25.99
2016-06-02T09:53:49.075Z,25.46
2016-06-02T09:54:49.360Z,24.69
2016-06-02T09:55:49.847Z,24.16
2016-06-02T09:56:49.240Z,24.13
2016-06-02T09:57:49.117Z,23.98
2016-06-02T09:58:49.152Z,23.83
2016-06-02T09:59:49.217Z,23.39
2016-06-02T10:00:49.408Z,23.09
2016-06-02T10:01:49.456Z,22.91
2016-06-02T10:02:49.350Z,22.73
2016-06-02T10:03:49.556Z,22.99
2016-06-02T10:04:49.589Z,23.18
2016-06-02T10:05:49.499Z,23.27
2016-06-02T10:06:49.689Z,22.98
2016-06-02T10:07:49.566Z,23.25
2016-06-02T10:08:49.772Z,23.65
2016-06-02T10:09:49.821Z,23.91
2016-06-02T10:10:49.856Z,24.1
2016-06-02T10:11:49.905Z,24.58
2016-06-02T10:12:49.954Z,25.01
2016-06-02T10:13:49.988Z,25.33
2016-06-02T10:14:49.726Z,25.68
2016-06-02T10:15:50.088Z,25.28
2016-06-02T10:16:50.121Z,25.32
2016-06-02T10:17:50.171Z,26.02
2016-06-02T10:18:50.220Z,26.89
2016-06-02T10:19:50.115Z,27.82
2016-06-02T10:20:50.320Z,27.32
2016-06-02T10:21:50.370Z,27.12
2016-06-02T10:22:50.279Z,27.14
2016-06-02T10:23:50.438Z,27.52
2016-06-02T10:24:51.925Z,27.07
2016-06-02T10:25:50.631Z,26.66
2016-06-02T10:26:50.602Z,25.7
2016-06-02T10:27:50.637Z,24.63
2016-06-02T10:28:50.685Z,24.77
2016-06-02T10:29:50.736Z,25.6
2016-06-02T10:30:50.769Z,25.87
2016-06-02T10:31:50.834Z,25.8
2016-06-02T10:32:50.868Z,25.29
2016-06-02T10:33:50.917Z,24.74
2016-06-02T10:34:50.967Z,24.33
2016-06-02T10:35:51.017Z,23.68
2016-06-02T10:36:51.050Z,23.37
2016-06-02T10:37:51.100Z,23.25
2016-06-02T10:38:50.994Z,23.09
2016-06-02T10:39:51.199Z,22.88
2016-06-02T10:40:51.249Z,23.06
2016-06-02T10:41:51.282Z,23.06
2016-06-02T10:42:51.332Z,23.08
2016-06-02T10:43:51.382Z,22.98
2016-06-02T10:44:51.432Z,23.17
2016-06-02T10:45:51.309Z,23.55
2016-06-02T10:46:51.499Z,23.69
2016-06-02T10:47:51.549Z,23.81
2016-06-02T10:48:51.599Z,24.43
2016-06-02T10:49:51.632Z,24.63
2016-06-02T10:50:51.713Z,25.25
2016-06-02T10:51:51.732Z,25.47
2016-06-02T10:52:51.782Z,25.59
2016-06-02T10:53:51.815Z,25.53
2016-06-02T10:54:51.865Z,24.91
2016-06-02T10:55:51.758Z,24.73
2016-06-02T10:56:51.964Z,24.23
2016-06-02T10:57:52.013Z,24.32
2016-06-02T10:58:52.048Z,24.21
2016-06-02T10:59:51.941Z,24.6
2016-06-02T11:00:52.147Z,24.58
2016-06-02T11:01:52.196Z,24.16
2016-06-02T11:02:52.089Z,24.38
2016-06-02T11:03:52.139Z,24.57
2016-06-02T11:04:52.330Z,24.42
2016-06-02T11:05:52.363Z,24.23
2016-06-02T11:06:52.413Z,24.16
2016-06-02T11:07:52.463Z,24.7
2016-06-02T11:08:52.497Z,25.29
2016-06-02T11:09:52.968Z,25.29
2016-06-02T11:10:52.766Z,26.18
2016-06-02T11:11:52.644Z,26.97
2016-06-02T11:12:52.522Z,27.78
2016-06-02T11:13:52.728Z,28.69
2016-06-02T11:14:52.778Z,29.94
2016-06-02T11:15:52.827Z,30.97
2016-06-02T11:16:52.877Z,30.92
2016-06-02T11:17:52.911Z,30.78
2016-06-02T11:18:52.977Z,28.93
2016-06-02T11:19:53.041Z,28.37
2016-06-02T11:20:52.918Z,27.85
2016-06-02T11:21:53.125Z,26.95
2016-06-02T11:22:53.159Z,26.25
2016-06-02T11:23:53.209Z,26.75
2016-06-02T11:24:53.633Z,27.15
2016-06-02T11:25:54.542Z,27.1
2016-06-02T11:26:53.372Z,27.55
2016-06-02T11:27:53.266Z,28.2
2016-06-02T11:28:53.487Z,28.51
2016-06-02T11:29:53.506Z,28.08
2016-06-02T11:30:53.571Z,27.68
2016-06-02T11:31:53.636Z,27.82
2016-06-02T11:32:53.669Z,28.37
2016-06-02T11:33:53.720Z,28.41
2016-06-02T11:34:53.769Z,28
2016-06-02T11:35:53.819Z,27.02
2016-06-02T11:36:53.712Z,26.85
2016-06-02T11:37:53.933Z,26.21
2016-06-02T11:38:53.999Z,26.59
2016-06-02T11:39:54.486Z,26.55
2016-06-02T11:40:54.519Z,26.62
2016-06-02T11:41:54.132Z,26.52
2016-06-02T11:42:54.182Z,26.97
2016-06-02T11:43:54.231Z,26.34
2016-06-02T11:44:54.280Z,25.6
2016-06-02T11:45:54.330Z,25.84
2016-06-02T11:46:54.224Z,26.16
2016-06-02T11:47:54.273Z,26.41
2016-06-02T11:48:54.479Z,26.55
2016-06-02T11:49:54.371Z,26.53
2016-06-02T11:50:54.562Z,26.92
2016-06-02T11:51:54.643Z,27.29
2016-06-02T11:52:54.662Z,27.36
2016-06-02T11:53:54.712Z,26.58
2016-06-02T11:54:55.167Z,26.58
2016-06-02T11:55:54.685Z,26.92
2016-06-02T11:56:54.735Z,27
2016-06-02T11:57:54.909Z,26.92
2016-06-02T11:58:54.959Z,26.78
2016-06-02T11:59:54.945Z,26.68
2016-06-02T12:00:54.918Z,26.29
2016-06-02T12:01:55.108Z,26.51
2016-06-02T12:02:55.157Z,27.25
2016-06-02T12:03:55.206Z,28.01
2016-06-02T12:04:55.256Z,28.3
2016-06-02T12:05:55.305Z,28.67
2016-06-02T12:06:55.355Z,28.94
2016-06-02T12:07:55.405Z,28.97
2016-06-02T12:08:55.455Z,28.78
2016-06-02T12:09:55.505Z,28.54
2016-06-02T12:10:55.397Z,28.02
2016-06-02T12:11:55.462Z,27.86
2016-06-02T12:12:55.497Z,26.83
2016-06-02T12:13:55.702Z,26.13
2016-06-02T12:14:55.752Z,25.46
2016-06-02T12:15:55.817Z,25.35
2016-06-02T12:16:55.835Z,25.5
2016-06-02T12:17:55.744Z,25.7
2016-06-02T12:18:55.949Z,25.84
2016-06-02T12:19:55.999Z,26.19
2016-06-02T12:20:56.049Z,26.58
2016-06-02T12:21:56.083Z,26.34
2016-06-02T12:22:56.148Z,26.1
2016-06-02T12:23:56.198Z,26.63
2016-06-02T12:24:56.201Z,26.31
2016-06-02T12:25:57.141Z,26.31
2016-06-02T12:26:56.331Z,26.43
2016-06-02T12:27:56.209Z,25.96
2016-06-02T12:28:56.431Z,25.78
2016-06-02T12:29:56.464Z,25.36
2016-06-02T12:30:56.357Z,25.51
2016-06-02T12:31:56.563Z,25.55
2016-06-02T12:32:56.301Z,25.41
2016-06-02T12:33:56.647Z,25.17
2016-06-02T12:34:56.721Z,26.18
2016-06-02T12:35:56.783Z,26.62
2016-06-02T12:36:56.860Z,27.03
2016-06-02T12:37:56.937Z,26.84
2016-06-02T12:38:57.015Z,27.51
2016-06-02T12:39:57.086Z,27.78
2016-06-02T12:40:57.285Z,28
2016-06-02T12:41:57.033Z,27.68
2016-06-02T12:42:57.249Z,27.21
2016-06-02T12:43:57.324Z,27.21
2016-06-02T12:44:57.381Z,26.83
2016-06-02T12:45:57.419Z,26.38
2016-06-02T12:46:57.488Z,26.06
2016-06-02T12:47:57.524Z,25.95
2016-06-02T12:48:57.608Z,25.95
2016-06-02T12:49:57.630Z,25.81
2016-06-02T12:50:57.681Z,25.69
2016-06-02T12:51:57.715Z,25.53
2016-06-02T12:52:57.766Z,25.33
2016-06-02T12:53:57.661Z,24.88
2016-06-02T12:54:57.712Z,25.17
2016-06-02T12:55:57.918Z,25.35